createdAt,value
2022-09-07T00:03:05.895Z,13.16
2022-09-07T00:08:09.252Z,13.16
2022-09-07T00:13:13.774Z,13.12
2022-09-07T00:18:17.164Z,12.96
2022-09-07T00:23:20.340Z,12.86
2022-09-07T00:28:24.996Z,12.77
2022-09-07T00:33:28.795Z,12.82
2022-09-07T00:38:32.240Z,12.78
2022-09-07T00:43:37.890Z,12.64
2022-09-07T00:48:45.055Z,12.66
2022-09-07T00:53:53.776Z,12.47
2022-09-07T00:58:58.890Z,12.49
2022-09-07T01:04:02.348Z,12.43
2022-09-07T01:09:07.692Z,12.28
2022-09-07T01:14:16.110Z,12.38
2022-09-07T01:19:32.035Z,12.29
2022-09-07T01:24:52.220Z,12.18
2022-09-07T01:30:01.637Z,12.22
2022-09-07T01:35:07.434Z,12.19
2022-09-07T01:40:13.585Z,12.11
2022-09-07T01:45:20.712Z,12.01
2022-09-07T01:50:26.224Z,11.95
2022-09-07T01:55:34.092Z,11.86
2022-09-07T02:00:39.949Z,11.91
2022-09-07T02:05:47.030Z,11.90
2022-09-07T02:10:51.644Z,11.83
2022-09-07T02:15:59.155Z,11.86
2022-09-07T02:21:04.146Z,11.72
2022-09-07T02:26:10.546Z,11.62
2022-09-07T02:31:16.004Z,11.49
2022-09-07T02:36:20.963Z,11.54
2022-09-07T02:41:31.855Z,11.52
2022-09-07T02:46:46.985Z,11.45
2022-09-07T02:51:56.560Z,11.31
2022-09-07T02:57:03.081Z,11.28
2022-09-07T03:02:12.602Z,11.29
2022-09-07T03:07:17.582Z,11.19
2022-09-07T03:12:20.583Z,11.19
2022-09-07T03:17:24.878Z,11.16
2022-09-07T03:22:28.496Z,11.14
2022-09-07T03:27:31.734Z,11.18
2022-09-07T03:32:36.903Z,11.12
2022-09-07T03:37:39.978Z,10.96
2022-09-07T03:42:43.133Z,11.01
2022-09-07T03:47:47.496Z,11.07
2022-09-07T03:52:50.504Z,11.03
2022-09-07T03:57:53.697Z,11.06
2022-09-07T04:02:58.049Z,10.96
2022-09-07T04:08:01.234Z,10.83
2022-09-07T04:13:04.321Z,10.75
2022-09-07T04:18:08.809Z,10.78
2022-09-07T04:23:11.818Z,10.77
2022-09-07T04:28:14.856Z,10.80
2022-09-07T04:33:19.194Z,10.75
2022-09-07T04:38:22.179Z,10.77
2022-09-07T04:43:25.154Z,10.90
2022-09-07T04:48:29.723Z,10.86
2022-09-07T04:53:32.895Z,10.80
2022-09-07T04:58:36.445Z,10.99
2022-09-07T05:03:40.858Z,11.09
2022-09-07T05:08:44.947Z,11.25
2022-09-07T05:13:48.042Z,11.30
2022-09-07T05:18:53.157Z,11.37
2022-09-07T05:23:57.026Z,11.48
2022-09-07T05:39:31.574Z,11.58
2022-09-07T05:44:44.935Z,11.76
2022-09-07T05:49:51.134Z,11.86
2022-09-07T05:55:07.434Z,12.02
2022-09-07T06:00:16.465Z,12.08
2022-09-07T06:05:20.818Z,12.23
2022-09-07T06:15:46.899Z,12.48
2022-09-07T06:20:51.187Z,12.59
2022-09-07T06:25:54.196Z,12.67
2022-09-07T06:31:00.087Z,12.68
2022-09-07T06:36:05.829Z,12.70
2022-09-07T06:51:58.586Z,13.02
2022-09-07T06:57:08.040Z,13.14
2022-09-07T07:02:12.637Z,13.28
2022-09-07T07:07:16.967Z,13.48
2022-09-07T07:17:21.939Z,13.78
2022-09-07T07:27:49.542Z,14.03
2022-09-07T07:32:53.087Z,14.13
2022-09-07T07:43:20.397Z,14.39
2022-09-07T07:53:44.658Z,14.69
2022-09-07T07:58:48.396Z,14.84
2022-09-07T08:03:52.023Z,14.99
2022-09-07T08:08:56.327Z,15.09
2022-09-07T08:14:00.354Z,15.19
2022-09-07T08:19:03.469Z,15.32
2022-09-07T08:24:08.088Z,15.52
2022-09-07T08:29:11.765Z,15.63
2022-09-07T08:34:14.717Z,15.77
2022-09-07T08:39:19.125Z,15.96
2022-09-07T08:44:23.539Z,16.09
2022-09-07T08:49:30.225Z,16.15
2022-09-07T08:54:34.727Z,16.31
2022-09-07T08:59:40.835Z,16.52
2022-09-07T09:10:13.879Z,16.98
2022-09-07T09:15:21.243Z,17.19
2022-09-07T09:20:27.342Z,17.38
2022-09-07T09:25:36.719Z,17.61
2022-09-07T09:30:48.325Z,17.86
2022-09-07T09:36:00.852Z,18.08
2022-09-07T09:41:06.899Z,18.43
2022-09-07T09:46:21.585Z,19.30
2022-09-07T09:56:50.795Z,21.13
2022-09-07T10:07:20.892Z,21.53
2022-09-07T10:12:26.341Z,21.64
2022-09-07T10:17:31.035Z,21.69
2022-09-07T10:22:35.299Z,21.83
2022-09-07T10:27:41.025Z,22.03
2022-09-07T10:32:59.463Z,22.15
2022-09-07T10:38:15.076Z,22.41
2022-09-07T10:43:24.519Z,22.67
2022-09-07T10:48:32.153Z,22.81
2022-09-07T10:53:42.695Z,23.05
2022-09-07T10:59:04.202Z,23.25
2022-09-07T11:04:25.829Z,23.65
2022-09-07T11:09:51.669Z,24.16
2022-09-07T11:14:59.417Z,24.50
2022-09-07T11:20:04.654Z,24.82
2022-09-07T11:25:30.195Z,25.40
2022-09-07T11:30:36.122Z,25.96
2022-09-07T11:35:45.454Z,26.59
2022-09-07T11:40:56.254Z,27.06
2022-09-07T11:46:04.999Z,27.55
2022-09-07T11:51:10.357Z,27.66
2022-09-07T11:56:16.335Z,28.16
2022-09-07T12:01:27.676Z,28.81
2022-09-07T12:06:45.536Z,28.97
2022-09-07T12:12:01.257Z,29.05
2022-09-07T12:17:16.023Z,28.96
2022-09-07T12:22:21.338Z,29.00
2022-09-07T12:27:37.600Z,29.53
2022-09-07T12:32:58.910Z,29.81
2022-09-07T12:38:06.007Z,29.88
2022-09-07T12:43:27.647Z,30.10
2022-09-07T12:48:35.847Z,30.22
2022-09-07T12:53:46.810Z,29.95
2022-09-07T12:59:01.095Z,29.81
2022-09-07T13:04:19.759Z,29.44
2022-09-07T13:09:31.156Z,28.87
2022-09-07T13:14:37.815Z,28.61
2022-09-07T13:19:59.380Z,28.53
2022-09-07T13:25:23.935Z,28.23
2022-09-07T13:30:37.099Z,27.97
2022-09-07T13:35:45.808Z,27.64
2022-09-07T13:40:52.198Z,27.07
2022-09-07T13:46:01.477Z,26.67
2022-09-07T13:51:07.887Z,26.48
2022-09-07T13:56:16.961Z,26.12
2022-09-07T14:01:21.578Z,25.71
2022-09-07T14:06:30.056Z,25.56
2022-09-07T14:11:41.552Z,25.24
2022-09-07T14:16:45.904Z,24.97
2022-09-07T14:21:59.233Z,24.85
2022-09-07T14:27:04.851Z,24.90
2022-09-07T14:32:11.821Z,24.89
2022-09-07T14:37:16.312Z,24.73
2022-09-07T14:42:23.124Z,24.59
2022-09-07T14:47:29.152Z,24.52
2022-09-07T14:52:36.781Z,24.32
2022-09-07T14:57:45.131Z,23.98
2022-09-07T15:02:48.268Z,23.37
2022-09-07T15:07:52.465Z,22.99
2022-09-07T15:12:58.013Z,22.66
2022-09-07T15:18:07.796Z,22.45
2022-09-07T15:23:13.155Z,22.31
2022-09-07T15:33:47.357Z,22.10
2022-09-07T15:39:05.581Z,21.98
2022-09-07T15:44:09.932Z,21.84
2022-09-07T15:49:13.531Z,21.66
2022-09-07T15:54:17.219Z,21.51
2022-09-07T15:59:21.716Z,21.38
2022-09-07T16:04:24.711Z,21.17
2022-09-07T16:09:27.877Z,21.03
2022-09-07T16:14:35.063Z,20.95
2022-09-07T16:19:40.999Z,20.81
2022-09-07T16:24:44.265Z,20.65
2022-09-07T16:29:49.150Z,20.55
2022-09-07T16:34:52.120Z,20.42
2022-09-07T16:39:55.102Z,20.25
2022-09-07T16:46:02.521Z,20.14
2022-09-07T16:50:23.469Z,19.95
2022-09-07T16:55:26.518Z,19.86
2022-09-07T17:00:33.893Z,19.71
2022-09-07T17:05:39.291Z,19.58
2022-09-07T17:10:42.291Z,19.50
2022-09-07T17:15:46.828Z,19.44
2022-09-07T17:20:55.084Z,19.34
2022-09-07T17:26:03.988Z,19.25
2022-09-07T17:31:09.852Z,19.12
2022-09-07T17:36:13.822Z,19.06
2022-09-07T17:41:18.515Z,18.97
2022-09-07T17:46:24.023Z,18.86
2022-09-07T17:51:27.912Z,18.76
2022-09-07T17:56:31.672Z,18.72
2022-09-07T18:01:35.984Z,18.59
2022-09-07T18:06:39.302Z,18.54
2022-09-07T18:11:45.403Z,18.46
2022-09-07T18:16:50.833Z,18.38
2022-09-07T18:21:53.896Z,18.28
2022-09-07T18:26:56.884Z,18.21
2022-09-07T18:32:02.262Z,18.16
2022-09-07T18:37:05.633Z,18.17
2022-09-07T18:42:08.921Z,18.10
2022-09-07T18:47:22.193Z,18.04
2022-09-07T18:57:49.952Z,17.97
2022-09-07T19:02:54.342Z,17.93
2022-09-07T19:07:57.366Z,17.92
2022-09-07T19:13:00.353Z,17.82
2022-09-07T19:18:05.762Z,17.73
2022-09-07T19:23:10.630Z,17.77
2022-09-07T19:28:14.396Z,17.75
2022-09-07T19:33:18.774Z,17.71
2022-09-07T19:38:22.050Z,17.64
2022-09-07T19:43:25.120Z,17.55
2022-09-07T19:48:31.704Z,17.59
2022-09-07T19:53:35.957Z,17.51
2022-09-07T19:58:40.067Z,17.47
2022-09-07T20:03:50.462Z,17.44
2022-09-07T20:08:53.414Z,17.37
2022-09-07T20:13:56.979Z,17.28
2022-09-07T20:19:01.274Z,17.25
2022-09-07T20:24:04.454Z,17.17
2022-09-07T20:34:32.218Z,17.04
2022-09-07T20:39:39.043Z,17.05
2022-09-07T20:44:42.381Z,17.01
2022-09-07T20:49:46.989Z,16.86
2022-09-07T20:54:50.132Z,16.85
2022-09-07T20:59:53.288Z,16.82
2022-09-07T21:04:57.578Z,16.73
2022-09-07T21:10:03.404Z,16.54
2022-09-07T21:15:09.959Z,16.33
2022-09-07T21:20:14.182Z,16.27
2022-09-07T21:25:17.765Z,16.17
2022-09-07T21:30:20.687Z,16.26
2022-09-07T21:35:24.960Z,16.25
2022-09-07T21:40:28.176Z,16.18
2022-09-07T21:45:32.275Z,16.10
2022-09-07T21:50:36.582Z,16.00
2022-09-07T21:55:39.497Z,15.96
2022-09-07T22:00:42.449Z,15.88
2022-09-07T22:05:49.317Z,15.81
2022-09-07T22:10:52.289Z,15.84
2022-09-07T22:15:55.293Z,15.78
2022-09-07T22:21:03.142Z,15.76
2022-09-07T22:26:06.576Z,15.62
2022-09-07T22:31:10.443Z,15.55
2022-09-07T22:36:16.247Z,15.58
2022-09-07T22:41:20.385Z,15.59
2022-09-07T22:46:24.274Z,15.53
2022-09-07T22:51:29.920Z,15.45
2022-09-07T22:56:34.037Z,15.35
2022-09-07T23:01:37.130Z,15.29
2022-09-07T23:06:42.406Z,15.00
2022-09-07T23:11:46.242Z,14.87
2022-09-07T23:16:49.587Z,14.77
2022-09-07T23:21:53.862Z,14.71
2022-09-07T23:26:56.760Z,14.58
2022-09-07T23:31:59.703Z,14.41
2022-09-07T23:37:04.006Z,14.59
2022-09-07T23:42:07.098Z,14.69
2022-09-07T23:47:10.046Z,14.77
2022-09-07T23:52:14.334Z,14.76
2022-09-07T23:57:17.302Z,14.48
